CSN8971 ZGSZ-ZBAA
Flight info
| Callsign | CSN8971 |
|---|---|
| Flight time | 2h 39m |
| Altitude | 35100 |
| Route | IDUMA A461 BUBDA W56 UKLUK W616 VANPI W56 DUGEB |
| Aircraft | B77W/H-SDE2E3FGILRWXY/LB2 |
Departure
| Time | 2026-04-22 07:06 |
|---|---|
| Airport | Shenzhen Bao'an International Airport (ZGSZ) |
Arrival
| Time | 2026-04-22 09:46 |
|---|---|
| Airport | Beijing Capital International Airport (ZBAA) |
| Time | Latitude | Longitude | Altitude | Speed | Heading |
|---|---|---|---|---|---|
| 2026-04-22 06:14 | 22.63394 | 113.80894 | 27 ft | 0 kts | 308° |
| 2026-04-22 06:52 | 22.63390 | 113.80900 | 27 ft | 2 kts | 308° |
| 2026-04-22 06:53 | 22.63381 | 113.80912 | 27 ft | 2 kts | 308° |
| 2026-04-22 06:53 | 22.63372 | 113.80925 | 27 ft | 2 kts | 309° |
| 2026-04-22 06:53 | 22.63361 | 113.80936 | 27 ft | 2 kts | 333° |
| 2026-04-22 06:53 | 22.63347 | 113.80941 | 27 ft | 2 kts | 352° |
| 2026-04-22 06:54 | 22.63333 | 113.80942 | 27 ft | 2 kts | 10° |
| 2026-04-22 06:54 | 22.63319 | 113.80937 | 27 ft | 2 kts | 29° |
| 2026-04-22 06:54 | 22.63307 | 113.80927 | 27 ft | 2 kts | 47° |
| 2026-04-22 06:54 | 22.63299 | 113.80917 | 27 ft | 0 kts | 63° |
| 2026-04-22 06:55 | 22.63297 | 113.80913 | 27 ft | 0 kts | 64° |
| 2026-04-22 06:57 | 22.63298 | 113.80913 | 27 ft | 0 kts | 64° |
| 2026-04-22 06:58 | 22.63306 | 113.80932 | 27 ft | 6 kts | 62° |
| 2026-04-22 06:58 | 22.63335 | 113.80991 | 27 ft | 9 kts | 63° |
| 2026-04-22 06:58 | 22.63363 | 113.81050 | 27 ft | 8 kts | 63° |
| 2026-04-22 06:58 | 22.63389 | 113.81099 | 27 ft | 6 kts | 47° |
| 2026-04-22 06:59 | 22.63430 | 113.81112 | 27 ft | 6 kts | 352° |
| 2026-04-22 06:59 | 22.63476 | 113.81092 | 27 ft | 7 kts | 333° |
| 2026-04-22 06:59 | 22.63525 | 113.81065 | 27 ft | 9 kts | 333° |
| 2026-04-22 06:59 | 22.63590 | 113.81029 | 27 ft | 11 kts | 333° |
| 2026-04-22 07:00 | 22.63669 | 113.80987 | 27 ft | 13 kts | 333° |
| 2026-04-22 07:00 | 22.63756 | 113.80939 | 27 ft | 14 kts | 333° |
| 2026-04-22 07:00 | 22.63854 | 113.80885 | 27 ft | 17 kts | 333° |
| 2026-04-22 07:00 | 22.63967 | 113.80823 | 27 ft | 18 kts | 333° |
| 2026-04-22 07:01 | 22.64076 | 113.80763 | 27 ft | 17 kts | 333° |
| 2026-04-22 07:01 | 22.64191 | 113.80700 | 27 ft | 19 kts | 333° |
| 2026-04-22 07:01 | 22.64312 | 113.80634 | 27 ft | 18 kts | 333° |
| 2026-04-22 07:01 | 22.64422 | 113.80573 | 27 ft | 16 kts | 333° |
| 2026-04-22 07:02 | 22.64522 | 113.80518 | 27 ft | 16 kts | 333° |
| 2026-04-22 07:02 | 22.64628 | 113.80460 | 27 ft | 18 kts | 333° |
| 2026-04-22 07:02 | 22.64745 | 113.80396 | 27 ft | 19 kts | 333° |
| 2026-04-22 07:02 | 22.64862 | 113.80332 | 27 ft | 17 kts | 333° |
| 2026-04-22 07:03 | 22.64967 | 113.80275 | 27 ft | 16 kts | 333° |
| 2026-04-22 07:03 | 22.65061 | 113.80223 | 27 ft | 14 kts | 333° |
| 2026-04-22 07:03 | 22.65137 | 113.80181 | 27 ft | 8 kts | 333° |
| 2026-04-22 07:03 | 22.65185 | 113.80160 | 27 ft | 6 kts | 358° |
| 2026-04-22 07:04 | 22.65221 | 113.80183 | 27 ft | 6 kts | 50° |
| 2026-04-22 07:04 | 22.65245 | 113.80226 | 27 ft | 6 kts | 63° |
| 2026-04-22 07:04 | 22.65265 | 113.80267 | 27 ft | 5 kts | 63° |
| 2026-04-22 07:04 | 22.65264 | 113.80315 | 27 ft | 8 kts | 116° |
| 2026-04-22 07:05 | 22.65221 | 113.80353 | 27 ft | 8 kts | 152° |
| 2026-04-22 07:05 | 22.65213 | 113.80358 | 27 ft | 0 kts | 153° |
| 2026-04-22 07:05 | 22.65135 | 113.80400 | 27 ft | 37 kts | 154° |
| 2026-04-22 07:05 | 22.64689 | 113.80645 | 27 ft | 105 kts | 153° |
| 2026-04-22 07:06 | 22.63852 | 113.81107 | 62 ft | 157 kts | 156° |
| 2026-04-22 07:06 | 22.62830 | 113.81660 | 511 ft | 171 kts | 156° |
| 2026-04-22 07:06 | 22.61755 | 113.82293 | 1200 ft | 180 kts | 156° |
| 2026-04-22 07:06 | 22.60596 | 113.82919 | 1585 ft | 195 kts | 158° |
| 2026-04-22 07:07 | 22.59321 | 113.83598 | 1973 ft | 213 kts | 157° |
| 2026-04-22 07:07 | 22.57934 | 113.84345 | 2405 ft | 230 kts | 156° |
| 2026-04-22 07:07 | 22.56473 | 113.85144 | 3107 ft | 235 kts | 157° |
| 2026-04-22 07:07 | 22.55019 | 113.85941 | 3819 ft | 239 kts | 157° |
| 2026-04-22 07:08 | 22.53517 | 113.86762 | 4451 ft | 246 kts | 157° |
| 2026-04-22 07:08 | 22.52007 | 113.87666 | 5146 ft | 254 kts | 146° |
| 2026-04-22 07:08 | 22.50868 | 113.89167 | 5755 ft | 269 kts | 117° |
| 2026-04-22 07:08 | 22.50489 | 113.91179 | 6360 ft | 282 kts | 88° |
| 2026-04-22 07:09 | 22.51036 | 113.93225 | 6974 ft | 288 kts | 61° |
| 2026-04-22 07:09 | 22.52014 | 113.95081 | 7680 ft | 289 kts | 59° |
| 2026-04-22 07:09 | 22.52993 | 113.96979 | 8345 ft | 292 kts | 60° |
| 2026-04-22 07:09 | 22.53943 | 113.98920 | 9030 ft | 293 kts | 61° |
| 2026-04-22 07:10 | 22.55135 | 114.00703 | 9620 ft | 292 kts | 37° |
| 2026-04-22 07:10 | 22.56881 | 114.01779 | 10042 ft | 295 kts | 12° |
| 2026-04-22 07:10 | 22.58951 | 114.02217 | 10270 ft | 311 kts | 2° |
| 2026-04-22 07:10 | 22.61172 | 114.02460 | 10622 ft | 327 kts | 1° |
| 2026-04-22 07:11 | 22.63473 | 114.02689 | 10992 ft | 344 kts | 1° |
| 2026-04-22 07:11 | 22.65924 | 114.02938 | 11392 ft | 359 kts | 1° |
| 2026-04-22 07:11 | 22.68477 | 114.03170 | 11762 ft | 374 kts | 357° |
| 2026-04-22 07:11 | 22.71126 | 114.02981 | 12116 ft | 384 kts | 346° |
| 2026-04-22 07:12 | 22.73725 | 114.02209 | 12687 ft | 388 kts | 335° |
| 2026-04-22 07:12 | 22.76227 | 114.01131 | 13500 ft | 388 kts | 334° |
| 2026-04-22 07:12 | 22.78726 | 114.00024 | 14355 ft | 389 kts | 333° |
| 2026-04-22 07:12 | 22.81226 | 113.98911 | 15119 ft | 393 kts | 334° |
| 2026-04-22 07:13 | 22.83758 | 113.97784 | 15802 ft | 398 kts | 334° |
| 2026-04-22 07:13 | 22.86327 | 113.96639 | 16494 ft | 402 kts | 334° |
| 2026-04-22 07:13 | 22.88925 | 113.95481 | 17223 ft | 404 kts | 334° |
| 2026-04-22 07:13 | 22.91522 | 113.94267 | 17907 ft | 406 kts | 331° |
| 2026-04-22 07:14 | 22.94070 | 113.92929 | 18526 ft | 411 kts | 330° |
| 2026-04-22 07:14 | 22.96640 | 113.91572 | 19184 ft | 415 kts | 330° |
| 2026-04-22 07:14 | 22.99266 | 113.90190 | 19857 ft | 418 kts | 331° |
| 2026-04-22 07:14 | 23.01894 | 113.88811 | 20464 ft | 422 kts | 331° |
| 2026-04-22 07:15 | 23.04556 | 113.87418 | 21080 ft | 426 kts | 331° |
| 2026-04-22 07:15 | 23.07216 | 113.86026 | 21680 ft | 429 kts | 331° |
| 2026-04-22 07:15 | 23.09987 | 113.84682 | 22253 ft | 435 kts | 336° |
| 2026-04-22 07:15 | 23.12808 | 113.83556 | 22889 ft | 437 kts | 337° |
| 2026-04-22 07:16 | 23.15693 | 113.82425 | 23492 ft | 440 kts | 337° |
| 2026-04-22 07:16 | 23.18586 | 113.81290 | 24083 ft | 442 kts | 336° |
| 2026-04-22 07:16 | 23.21477 | 113.80156 | 24649 ft | 445 kts | 336° |
| 2026-04-22 07:16 | 23.24415 | 113.79002 | 25231 ft | 447 kts | 336° |
| 2026-04-22 07:17 | 23.27326 | 113.77856 | 25790 ft | 450 kts | 336° |
| 2026-04-22 07:17 | 23.30298 | 113.76687 | 26303 ft | 454 kts | 336° |
| 2026-04-22 07:17 | 23.33264 | 113.75518 | 26793 ft | 458 kts | 336° |
| 2026-04-22 07:17 | 23.36284 | 113.74329 | 27328 ft | 460 kts | 336° |
| 2026-04-22 07:18 | 23.39292 | 113.73143 | 27853 ft | 463 kts | 336° |
| 2026-04-22 07:18 | 23.42349 | 113.71937 | 28355 ft | 466 kts | 336° |
| 2026-04-22 07:18 | 23.45405 | 113.70731 | 28881 ft | 468 kts | 336° |
| 2026-04-22 07:18 | 23.48452 | 113.69528 | 29473 ft | 468 kts | 336° |
| 2026-04-22 07:19 | 23.51505 | 113.68323 | 30253 ft | 465 kts | 336° |
| 2026-04-22 07:19 | 23.54526 | 113.67130 | 31100 ft | 459 kts | 336° |
| 2026-04-22 07:19 | 23.57515 | 113.65949 | 31907 ft | 453 kts | 336° |
| 2026-04-22 07:19 | 23.60438 | 113.64793 | 32569 ft | 450 kts | 336° |
| 2026-04-22 07:20 | 23.63391 | 113.63623 | 33121 ft | 450 kts | 336° |
| 2026-04-22 07:20 | 23.66345 | 113.62453 | 33638 ft | 450 kts | 336° |
| 2026-04-22 07:20 | 23.69280 | 113.61289 | 34172 ft | 450 kts | 336° |
| 2026-04-22 07:20 | 23.72226 | 113.60121 | 34765 ft | 448 kts | 336° |
| 2026-04-22 07:21 | 23.75150 | 113.58961 | 34905 ft | 451 kts | 336° |
| 2026-04-22 07:21 | 23.81027 | 113.56628 | 34913 ft | 445 kts | 336° |
| 2026-04-22 07:22 | 23.86847 | 113.54316 | 34923 ft | 445 kts | 336° |
| 2026-04-22 07:22 | 23.92656 | 113.52005 | 34919 ft | 446 kts | 335° |
| 2026-04-22 07:23 | 23.98497 | 113.49680 | 34924 ft | 446 kts | 335° |
| 2026-04-22 07:23 | 24.04367 | 113.47341 | 34917 ft | 446 kts | 335° |
| 2026-04-22 07:24 | 24.10216 | 113.45008 | 34906 ft | 447 kts | 335° |
| 2026-04-22 07:24 | 24.16025 | 113.42715 | 34906 ft | 447 kts | 338° |
| 2026-04-22 07:25 | 24.22268 | 113.41610 | 34900 ft | 460 kts | 354° |
| 2026-04-22 07:25 | 24.28707 | 113.41791 | 34901 ft | 462 kts | 356° |
| 2026-04-22 07:26 | 24.35127 | 113.42020 | 34937 ft | 461 kts | 356° |
| 2026-04-22 07:26 | 24.41566 | 113.42203 | 34961 ft | 462 kts | 356° |
| 2026-04-22 07:27 | 24.48000 | 113.42384 | 34979 ft | 463 kts | 356° |
| 2026-04-22 07:27 | 24.54423 | 113.42568 | 34988 ft | 461 kts | 355° |
| 2026-04-22 07:28 | 24.64045 | 113.42842 | 34970 ft | 460 kts | 356° |
| 2026-04-22 07:28 | 24.70477 | 113.43024 | 34969 ft | 461 kts | 356° |
| 2026-04-22 07:29 | 24.76887 | 113.43207 | 34957 ft | 462 kts | 355° |
| 2026-04-22 07:29 | 24.83343 | 113.43391 | 34974 ft | 462 kts | 355° |
| 2026-04-22 07:30 | 24.89757 | 113.43574 | 34969 ft | 461 kts | 355° |
| 2026-04-22 07:30 | 24.96202 | 113.43757 | 34983 ft | 462 kts | 355° |
| 2026-04-22 07:31 | 25.02598 | 113.43940 | 34991 ft | 462 kts | 355° |
| 2026-04-22 07:31 | 25.09028 | 113.44124 | 34998 ft | 461 kts | 355° |
| 2026-04-22 07:32 | 25.15474 | 113.44308 | 35002 ft | 462 kts | 355° |
| 2026-04-22 07:32 | 25.21909 | 113.44500 | 35005 ft | 462 kts | 355° |
| 2026-04-22 07:33 | 25.28317 | 113.44680 | 35016 ft | 463 kts | 355° |
| 2026-04-22 07:33 | 25.34759 | 113.44862 | 35008 ft | 462 kts | 355° |
| 2026-04-22 07:34 | 25.41216 | 113.45047 | 35020 ft | 463 kts | 355° |
| 2026-04-22 07:34 | 25.47618 | 113.45231 | 35025 ft | 461 kts | 354° |
| 2026-04-22 07:35 | 25.54063 | 113.45416 | 35032 ft | 462 kts | 355° |
| 2026-04-22 07:35 | 25.60487 | 113.45600 | 35036 ft | 462 kts | 354° |
| 2026-04-22 07:36 | 25.66933 | 113.45786 | 35033 ft | 462 kts | 354° |
| 2026-04-22 07:36 | 25.73362 | 113.45972 | 35041 ft | 462 kts | 354° |
| 2026-04-22 07:37 | 25.79797 | 113.46158 | 35042 ft | 461 kts | 354° |
| 2026-04-22 07:37 | 25.86238 | 113.46343 | 35029 ft | 464 kts | 354° |
| 2026-04-22 07:38 | 25.92642 | 113.46225 | 35030 ft | 460 kts | 351° |
| 2026-04-22 07:38 | 25.99020 | 113.45942 | 35040 ft | 458 kts | 351° |
| 2026-04-22 07:39 | 26.05406 | 113.45676 | 35042 ft | 459 kts | 351° |
| 2026-04-22 07:39 | 26.11766 | 113.45422 | 35042 ft | 458 kts | 351° |
| 2026-04-22 07:40 | 26.18144 | 113.45171 | 35047 ft | 458 kts | 351° |
| 2026-04-22 07:40 | 26.24538 | 113.44923 | 35048 ft | 460 kts | 351° |
| 2026-04-22 07:41 | 26.30917 | 113.44677 | 35048 ft | 458 kts | 350° |
| 2026-04-22 07:41 | 26.37304 | 113.44431 | 35044 ft | 458 kts | 351° |
| 2026-04-22 07:42 | 26.43684 | 113.44185 | 35048 ft | 460 kts | 350° |
| 2026-04-22 07:42 | 26.50065 | 113.43940 | 35049 ft | 457 kts | 350° |
| 2026-04-22 07:43 | 26.56457 | 113.43694 | 35054 ft | 459 kts | 350° |
| 2026-04-22 07:43 | 26.62815 | 113.43450 | 35056 ft | 458 kts | 350° |
| 2026-04-22 07:44 | 26.69220 | 113.43205 | 35054 ft | 458 kts | 350° |
| 2026-04-22 07:44 | 26.75591 | 113.42960 | 35053 ft | 458 kts | 350° |
| 2026-04-22 07:45 | 26.81983 | 113.42713 | 35059 ft | 460 kts | 349° |
| 2026-04-22 07:45 | 26.88341 | 113.42470 | 35060 ft | 457 kts | 350° |
| 2026-04-22 07:46 | 26.94701 | 113.42224 | 35060 ft | 457 kts | 349° |
| 2026-04-22 07:46 | 27.01064 | 113.41978 | 35062 ft | 460 kts | 349° |
| 2026-04-22 07:47 | 27.07494 | 113.41730 | 35056 ft | 457 kts | 349° |
| 2026-04-22 07:47 | 27.13852 | 113.41483 | 35065 ft | 459 kts | 349° |
| 2026-04-22 07:48 | 27.20227 | 113.41237 | 35062 ft | 459 kts | 349° |
| 2026-04-22 07:48 | 27.26623 | 113.40990 | 35065 ft | 457 kts | 349° |
| 2026-04-22 07:49 | 27.33008 | 113.40740 | 35066 ft | 461 kts | 349° |
| 2026-04-22 07:49 | 27.39406 | 113.40813 | 35060 ft | 461 kts | 352° |
| 2026-04-22 07:50 | 27.45866 | 113.40971 | 35062 ft | 463 kts | 352° |
| 2026-04-22 07:50 | 27.52293 | 113.41114 | 35064 ft | 461 kts | 352° |
| 2026-04-22 07:51 | 27.58746 | 113.41249 | 35063 ft | 463 kts | 352° |
| 2026-04-22 07:51 | 27.65191 | 113.41380 | 35063 ft | 461 kts | 352° |
| 2026-04-22 07:52 | 27.71654 | 113.41853 | 35062 ft | 470 kts | 355° |
| 2026-04-22 07:52 | 27.78128 | 113.42473 | 35057 ft | 465 kts | 355° |
| 2026-04-22 07:53 | 27.84603 | 113.43069 | 35056 ft | 467 kts | 355° |
| 2026-04-22 07:53 | 27.91077 | 113.43655 | 35057 ft | 466 kts | 355° |
| 2026-04-22 07:54 | 27.97565 | 113.44230 | 35059 ft | 466 kts | 354° |
| 2026-04-22 07:54 | 28.04022 | 113.44795 | 35057 ft | 468 kts | 354° |
| 2026-04-22 07:55 | 28.10526 | 113.45361 | 35061 ft | 465 kts | 354° |
| 2026-04-22 07:55 | 28.17018 | 113.45819 | 35063 ft | 466 kts | 354° |
| 2026-04-22 07:56 | 28.23473 | 113.46275 | 35071 ft | 466 kts | 354° |
| 2026-04-22 07:56 | 28.29963 | 113.46736 | 35063 ft | 468 kts | 354° |
| 2026-04-22 07:57 | 28.36452 | 113.47202 | 35058 ft | 468 kts | 354° |
| 2026-04-22 07:57 | 28.42987 | 113.47671 | 35061 ft | 468 kts | 354° |
| 2026-04-22 07:58 | 28.49476 | 113.48133 | 35064 ft | 470 kts | 354° |
| 2026-04-22 07:58 | 28.55999 | 113.48600 | 35063 ft | 466 kts | 354° |
| 2026-04-22 07:59 | 28.62464 | 113.49062 | 35068 ft | 468 kts | 354° |
| 2026-04-22 07:59 | 28.68954 | 113.49527 | 35067 ft | 466 kts | 354° |
| 2026-04-22 08:00 | 28.75456 | 113.49992 | 35067 ft | 469 kts | 354° |
| 2026-04-22 08:00 | 28.81952 | 113.50459 | 35065 ft | 467 kts | 354° |
| 2026-04-22 08:01 | 28.88452 | 113.50925 | 35068 ft | 470 kts | 354° |
| 2026-04-22 08:01 | 28.95002 | 113.51396 | 35068 ft | 469 kts | 354° |
| 2026-04-22 08:02 | 29.01500 | 113.51865 | 35068 ft | 467 kts | 354° |
| 2026-04-22 08:02 | 29.08000 | 113.52332 | 35064 ft | 471 kts | 354° |
| 2026-04-22 08:03 | 29.14501 | 113.52804 | 35065 ft | 467 kts | 354° |
| 2026-04-22 08:03 | 29.21038 | 113.53274 | 35058 ft | 470 kts | 354° |
| 2026-04-22 08:04 | 29.27549 | 113.53747 | 35065 ft | 469 kts | 354° |
| 2026-04-22 08:04 | 29.34078 | 113.54283 | 35072 ft | 472 kts | 355° |
| 2026-04-22 08:05 | 29.40638 | 113.54858 | 35073 ft | 474 kts | 355° |
| 2026-04-22 08:05 | 29.47188 | 113.55430 | 35067 ft | 473 kts | 355° |
| 2026-04-22 08:06 | 29.53766 | 113.56003 | 35061 ft | 472 kts | 355° |
| 2026-04-22 08:06 | 29.60323 | 113.56574 | 35069 ft | 474 kts | 355° |
| 2026-04-22 08:07 | 29.66886 | 113.57146 | 35062 ft | 471 kts | 355° |
| 2026-04-22 08:07 | 29.73469 | 113.57719 | 35061 ft | 472 kts | 355° |
| 2026-04-22 08:08 | 29.80032 | 113.58289 | 35068 ft | 478 kts | 356° |
| 2026-04-22 08:08 | 29.86650 | 113.58869 | 35069 ft | 475 kts | 355° |
| 2026-04-22 08:09 | 29.93281 | 113.59606 | 35057 ft | 483 kts | 3° |
| 2026-04-22 08:09 | 29.99644 | 113.62099 | 35069 ft | 492 kts | 15° |
| 2026-04-22 08:10 | 30.05991 | 113.65260 | 35064 ft | 499 kts | 15° |
| 2026-04-22 08:10 | 30.12358 | 113.68446 | 35066 ft | 498 kts | 15° |
| 2026-04-22 08:11 | 30.18758 | 113.71647 | 35065 ft | 501 kts | 15° |
| 2026-04-22 08:11 | 30.25125 | 113.74837 | 35068 ft | 497 kts | 16° |
| 2026-04-22 08:12 | 30.31520 | 113.78040 | 35066 ft | 500 kts | 15° |
| 2026-04-22 08:12 | 30.37881 | 113.81235 | 35070 ft | 499 kts | 15° |
| 2026-04-22 08:13 | 30.44262 | 113.84441 | 35062 ft | 501 kts | 16° |
| 2026-04-22 08:13 | 30.50644 | 113.87653 | 35069 ft | 502 kts | 15° |
| 2026-04-22 08:14 | 30.57046 | 113.90879 | 35071 ft | 501 kts | 16° |
| 2026-04-22 08:14 | 30.63447 | 113.94110 | 35069 ft | 502 kts | 16° |
| 2026-04-22 08:15 | 30.69873 | 113.97218 | 35074 ft | 501 kts | 14° |
| 2026-04-22 08:15 | 30.76222 | 114.00666 | 35069 ft | 504 kts | 19° |
| 2026-04-22 08:16 | 30.82561 | 114.04187 | 35072 ft | 506 kts | 18° |
| 2026-04-22 08:16 | 30.88955 | 114.07661 | 35077 ft | 510 kts | 18° |
| 2026-04-22 08:17 | 30.95341 | 114.11133 | 35073 ft | 504 kts | 18° |
| 2026-04-22 08:17 | 31.01735 | 114.14607 | 35085 ft | 509 kts | 18° |
| 2026-04-22 08:18 | 31.08135 | 114.18089 | 35069 ft | 505 kts | 18° |
| 2026-04-22 08:18 | 31.14499 | 114.21551 | 35058 ft | 509 kts | 18° |
| 2026-04-22 08:19 | 31.20909 | 114.25045 | 35064 ft | 506 kts | 18° |
| 2026-04-22 08:19 | 31.27295 | 114.28529 | 35057 ft | 506 kts | 18° |
| 2026-04-22 08:20 | 31.33691 | 114.31830 | 35059 ft | 498 kts | 11° |
| 2026-04-22 08:20 | 31.40402 | 114.33224 | 35065 ft | 488 kts | 355° |
| 2026-04-22 08:21 | 31.47124 | 114.33477 | 35069 ft | 477 kts | 354° |
| 2026-04-22 08:21 | 31.53784 | 114.33683 | 35066 ft | 482 kts | 354° |
| 2026-04-22 08:22 | 31.60464 | 114.33888 | 35066 ft | 477 kts | 354° |
| 2026-04-22 08:22 | 31.67128 | 114.34086 | 35074 ft | 484 kts | 354° |
| 2026-04-22 08:23 | 31.73816 | 114.34288 | 35069 ft | 479 kts | 354° |
| 2026-04-22 08:23 | 31.80508 | 114.34493 | 35084 ft | 480 kts | 354° |
| 2026-04-22 08:24 | 31.87204 | 114.34695 | 35068 ft | 481 kts | 354° |
| 2026-04-22 08:24 | 31.93873 | 114.34898 | 35065 ft | 481 kts | 354° |
| 2026-04-22 08:25 | 32.00556 | 114.35101 | 35069 ft | 479 kts | 354° |
| 2026-04-22 08:25 | 32.07229 | 114.35301 | 35074 ft | 481 kts | 354° |
| 2026-04-22 08:26 | 32.13870 | 114.35503 | 35081 ft | 480 kts | 354° |
| 2026-04-22 08:26 | 32.20580 | 114.35706 | 35075 ft | 482 kts | 354° |
| 2026-04-22 08:27 | 32.27285 | 114.35930 | 35070 ft | 482 kts | 356° |
| 2026-04-22 08:27 | 32.33955 | 114.36549 | 35080 ft | 483 kts | 358° |
| 2026-04-22 08:28 | 32.40651 | 114.37191 | 35078 ft | 484 kts | 358° |
| 2026-04-22 08:28 | 32.47384 | 114.37824 | 35076 ft | 481 kts | 357° |
| 2026-04-22 08:29 | 32.54058 | 114.38442 | 35079 ft | 484 kts | 357° |
| 2026-04-22 08:29 | 32.60774 | 114.39061 | 35084 ft | 483 kts | 357° |
| 2026-04-22 08:30 | 32.67443 | 114.39678 | 35090 ft | 481 kts | 357° |
| 2026-04-22 08:30 | 32.74118 | 114.40301 | 35090 ft | 481 kts | 357° |
| 2026-04-22 08:31 | 32.80757 | 114.40921 | 35092 ft | 478 kts | 357° |
| 2026-04-22 08:32 | 32.90762 | 114.41854 | 35097 ft | 480 kts | 357° |
| 2026-04-22 08:32 | 32.97447 | 114.42479 | 35009 ft | 481 kts | 357° |
| 2026-04-22 08:33 | 33.04122 | 114.43104 | 35088 ft | 483 kts | 357° |
| 2026-04-22 08:33 | 33.10809 | 114.43731 | 35296 ft | 483 kts | 357° |
| 2026-04-22 08:33 | 33.14189 | 114.44049 | 35093 ft | 482 kts | 357° |
| 2026-04-22 08:34 | 33.17504 | 114.44363 | 35089 ft | 476 kts | 357° |
| 2026-04-22 08:34 | 33.24117 | 114.44982 | 35088 ft | 483 kts | 357° |
| 2026-04-22 08:35 | 33.30851 | 114.45616 | 35088 ft | 484 kts | 357° |
| 2026-04-22 08:35 | 33.37527 | 114.46244 | 35084 ft | 482 kts | 356° |
| 2026-04-22 08:36 | 33.44207 | 114.46874 | 35091 ft | 478 kts | 357° |
| 2026-04-22 08:36 | 33.50876 | 114.47500 | 35087 ft | 486 kts | 357° |
| 2026-04-22 08:37 | 33.57558 | 114.48133 | 35095 ft | 479 kts | 357° |
| 2026-04-22 08:37 | 33.64230 | 114.48761 | 35078 ft | 483 kts | 356° |
| 2026-04-22 08:38 | 33.70942 | 114.49388 | 35085 ft | 484 kts | 356° |
| 2026-04-22 08:38 | 33.77639 | 114.50015 | 35084 ft | 483 kts | 356° |
| 2026-04-22 08:39 | 33.84380 | 114.50647 | 35087 ft | 484 kts | 356° |
| 2026-04-22 08:39 | 33.91095 | 114.51279 | 35084 ft | 486 kts | 356° |
| 2026-04-22 08:40 | 33.97827 | 114.51915 | 35079 ft | 484 kts | 356° |
| 2026-04-22 08:40 | 34.04558 | 114.52550 | 35087 ft | 488 kts | 356° |
| 2026-04-22 08:41 | 34.11327 | 114.53192 | 35078 ft | 483 kts | 356° |
| 2026-04-22 08:41 | 34.17976 | 114.53822 | 35087 ft | 487 kts | 356° |
| 2026-04-22 08:42 | 34.24727 | 114.54465 | 35085 ft | 481 kts | 355° |
| 2026-04-22 08:42 | 34.31474 | 114.55102 | 35086 ft | 489 kts | 356° |
| 2026-04-22 08:43 | 34.38200 | 114.55746 | 35083 ft | 484 kts | 356° |
| 2026-04-22 08:43 | 34.44953 | 114.56388 | 35087 ft | 490 kts | 356° |
| 2026-04-22 08:44 | 34.51736 | 114.57033 | 35088 ft | 487 kts | 356° |
| 2026-04-22 08:44 | 34.58483 | 114.57674 | 35087 ft | 486 kts | 356° |
| 2026-04-22 08:45 | 34.65212 | 114.58312 | 35095 ft | 486 kts | 355° |
| 2026-04-22 08:45 | 34.72004 | 114.58955 | 35094 ft | 491 kts | 355° |
| 2026-04-22 08:46 | 34.78765 | 114.59602 | 35092 ft | 488 kts | 355° |
| 2026-04-22 08:46 | 34.85570 | 114.60251 | 35095 ft | 489 kts | 355° |
| 2026-04-22 08:47 | 34.92352 | 114.60898 | 35099 ft | 491 kts | 355° |
| 2026-04-22 08:47 | 34.99141 | 114.61550 | 35089 ft | 487 kts | 355° |
| 2026-04-22 08:48 | 35.05936 | 114.62200 | 35086 ft | 489 kts | 355° |
| 2026-04-22 08:48 | 35.12751 | 114.62855 | 35078 ft | 490 kts | 355° |
| 2026-04-22 08:49 | 35.19495 | 114.63504 | 35081 ft | 491 kts | 355° |
| 2026-04-22 08:49 | 35.26370 | 114.64165 | 35078 ft | 493 kts | 355° |
| 2026-04-22 08:50 | 35.33139 | 114.64822 | 35078 ft | 490 kts | 354° |
| 2026-04-22 08:50 | 35.40013 | 114.65483 | 35060 ft | 495 kts | 355° |
| 2026-04-22 08:51 | 35.46843 | 114.66148 | 35056 ft | 491 kts | 355° |
| 2026-04-22 08:51 | 35.53683 | 114.66811 | 35057 ft | 494 kts | 355° |
| 2026-04-22 08:52 | 35.60509 | 114.67474 | 35059 ft | 492 kts | 355° |
| 2026-04-22 08:52 | 35.67302 | 114.68137 | 35061 ft | 492 kts | 354° |
| 2026-04-22 08:53 | 35.74138 | 114.68803 | 35048 ft | 491 kts | 354° |
| 2026-04-22 08:53 | 35.80989 | 114.69469 | 35279 ft | 499 kts | 354° |
| 2026-04-22 08:53 | 35.84450 | 114.69807 | 35736 ft | 499 kts | 355° |
| 2026-04-22 08:54 | 35.87906 | 114.70151 | 36610 ft | 491 kts | 354° |
| 2026-04-22 08:54 | 35.91267 | 114.70483 | 37062 ft | 488 kts | 354° |
| 2026-04-22 08:54 | 35.94635 | 114.70812 | 37055 ft | 489 kts | 354° |
| 2026-04-22 08:55 | 36.01424 | 114.71478 | 37054 ft | 489 kts | 354° |
| 2026-04-22 08:55 | 36.08208 | 114.72144 | 37046 ft | 487 kts | 354° |
| 2026-04-22 08:56 | 36.14890 | 114.72801 | 37046 ft | 484 kts | 353° |
| 2026-04-22 08:56 | 36.21658 | 114.73458 | 37038 ft | 488 kts | 354° |
| 2026-04-22 08:57 | 36.28386 | 114.74120 | 37042 ft | 487 kts | 353° |
| 2026-04-22 08:57 | 36.35150 | 114.74882 | 37028 ft | 495 kts | 359° |
| 2026-04-22 08:57 | 36.38567 | 114.75898 | 37032 ft | 508 kts | 9° |
| 2026-04-22 08:58 | 36.41896 | 114.77542 | 37052 ft | 520 kts | 15° |
| 2026-04-22 08:58 | 36.48495 | 114.81366 | 37041 ft | 526 kts | 16° |
| 2026-04-22 08:59 | 36.55100 | 114.85221 | 37045 ft | 523 kts | 16° |
| 2026-04-22 08:59 | 36.61643 | 114.89033 | 37053 ft | 524 kts | 16° |
| 2026-04-22 09:00 | 36.68259 | 114.92885 | 37069 ft | 528 kts | 16° |
| 2026-04-22 09:00 | 36.74909 | 114.96766 | 37062 ft | 525 kts | 16° |
| 2026-04-22 09:01 | 36.81506 | 115.00620 | 37065 ft | 526 kts | 16° |
| 2026-04-22 09:01 | 36.88144 | 115.04502 | 37054 ft | 526 kts | 16° |
| 2026-04-22 09:02 | 36.94750 | 115.08376 | 37065 ft | 524 kts | 15° |
| 2026-04-22 09:02 | 37.01380 | 115.12265 | 37051 ft | 529 kts | 16° |
| 2026-04-22 09:03 | 37.08028 | 115.16174 | 37059 ft | 533 kts | 15° |
| 2026-04-22 09:03 | 37.14720 | 115.20122 | 37040 ft | 527 kts | 16° |
| 2026-04-22 09:04 | 37.21382 | 115.24052 | 37042 ft | 534 kts | 15° |
| 2026-04-22 09:04 | 37.28068 | 115.28011 | 37032 ft | 530 kts | 15° |
| 2026-04-22 09:05 | 37.34738 | 115.31963 | 37043 ft | 534 kts | 16° |
| 2026-04-22 09:05 | 37.41439 | 115.35944 | 37042 ft | 532 kts | 16° |
| 2026-04-22 09:05 | 37.44790 | 115.37941 | 36931 ft | 529 kts | 15° |
| 2026-04-22 09:06 | 37.48114 | 115.39919 | 37056 ft | 533 kts | 16° |
| 2026-04-22 09:06 | 37.54848 | 115.43933 | 37055 ft | 535 kts | 15° |
| 2026-04-22 09:07 | 37.61584 | 115.47956 | 37037 ft | 538 kts | 16° |
| 2026-04-22 09:07 | 37.68313 | 115.51990 | 37018 ft | 532 kts | 16° |
| 2026-04-22 09:07 | 37.71606 | 115.53969 | 36428 ft | 529 kts | 15° |
| 2026-04-22 09:08 | 37.74987 | 115.55949 | 35376 ft | 532 kts | 12° |
| 2026-04-22 09:08 | 37.78419 | 115.57400 | 34551 ft | 522 kts | 3° |
| 2026-04-22 09:08 | 37.81942 | 115.58215 | 33728 ft | 511 kts | 354° |
| 2026-04-22 09:08 | 37.85460 | 115.58387 | 32897 ft | 501 kts | 347° |
| 2026-04-22 09:09 | 37.88938 | 115.58185 | 32048 ft | 502 kts | 346° |
| 2026-04-22 09:09 | 37.92403 | 115.57937 | 31185 ft | 505 kts | 347° |
| 2026-04-22 09:09 | 37.95905 | 115.57683 | 30479 ft | 504 kts | 347° |
| 2026-04-22 09:09 | 37.99383 | 115.57433 | 30029 ft | 498 kts | 348° |
| 2026-04-22 09:10 | 38.02815 | 115.57185 | 29482 ft | 493 kts | 348° |
| 2026-04-22 09:10 | 38.06241 | 115.56934 | 28915 ft | 489 kts | 348° |
| 2026-04-22 09:10 | 38.09624 | 115.56702 | 28370 ft | 485 kts | 350° |
| 2026-04-22 09:10 | 38.12953 | 115.56555 | 27815 ft | 480 kts | 349° |
| 2026-04-22 09:11 | 38.16301 | 115.56334 | 27244 ft | 475 kts | 349° |
| 2026-04-22 09:11 | 38.19555 | 115.56106 | 26712 ft | 470 kts | 349° |
| 2026-04-22 09:11 | 38.22829 | 115.55936 | 26146 ft | 469 kts | 354° |
| 2026-04-22 09:11 | 38.26069 | 115.56314 | 25594 ft | 473 kts | 4° |
| 2026-04-22 09:12 | 38.29252 | 115.57362 | 25035 ft | 476 kts | 13° |
| 2026-04-22 09:12 | 38.32312 | 115.59026 | 24471 ft | 476 kts | 20° |
| 2026-04-22 09:12 | 38.35254 | 115.60854 | 23894 ft | 472 kts | 20° |
| 2026-04-22 09:12 | 38.38202 | 115.62708 | 23285 ft | 468 kts | 20° |
| 2026-04-22 09:13 | 38.41079 | 115.64519 | 22746 ft | 463 kts | 21° |
| 2026-04-22 09:13 | 38.43972 | 115.66343 | 22163 ft | 458 kts | 21° |
| 2026-04-22 09:13 | 38.46817 | 115.68137 | 21564 ft | 452 kts | 22° |
| 2026-04-22 09:13 | 38.49567 | 115.69873 | 21009 ft | 443 kts | 21° |
| 2026-04-22 09:14 | 38.52293 | 115.71596 | 20480 ft | 434 kts | 22° |
| 2026-04-22 09:14 | 38.54976 | 115.73292 | 19929 ft | 425 kts | 22° |
| 2026-04-22 09:14 | 38.57597 | 115.74950 | 19393 ft | 416 kts | 22° |
| 2026-04-22 09:14 | 38.60143 | 115.76562 | 18872 ft | 407 kts | 22° |
| 2026-04-22 09:15 | 38.62666 | 115.78159 | 18368 ft | 400 kts | 22° |
| 2026-04-22 09:15 | 38.65132 | 115.79747 | 17832 ft | 397 kts | 25° |
| 2026-04-22 09:15 | 38.67407 | 115.81733 | 17379 ft | 395 kts | 35° |
| 2026-04-22 09:15 | 38.69474 | 115.83926 | 17328 ft | 386 kts | 36° |
| 2026-04-22 09:16 | 38.71545 | 115.86144 | 17327 ft | 391 kts | 36° |
| 2026-04-22 09:16 | 38.73639 | 115.88393 | 17253 ft | 391 kts | 36° |
| 2026-04-22 09:16 | 38.75712 | 115.90621 | 17159 ft | 391 kts | 36° |
| 2026-04-22 09:16 | 38.77805 | 115.92875 | 17058 ft | 390 kts | 36° |
| 2026-04-22 09:17 | 38.79859 | 115.95087 | 16944 ft | 390 kts | 36° |
| 2026-04-22 09:17 | 38.81934 | 115.97326 | 16846 ft | 387 kts | 36° |
| 2026-04-22 09:17 | 38.83977 | 115.99531 | 16746 ft | 388 kts | 36° |
| 2026-04-22 09:17 | 38.86047 | 116.01767 | 16638 ft | 387 kts | 36° |
| 2026-04-22 09:18 | 38.88106 | 116.03993 | 16542 ft | 385 kts | 36° |
| 2026-04-22 09:18 | 38.90138 | 116.06191 | 16437 ft | 385 kts | 36° |
| 2026-04-22 09:18 | 38.92191 | 116.08415 | 16332 ft | 385 kts | 36° |
| 2026-04-22 09:18 | 38.94241 | 116.10638 | 16225 ft | 383 kts | 36° |
| 2026-04-22 09:19 | 38.96264 | 116.12831 | 16125 ft | 384 kts | 36° |
| 2026-04-22 09:19 | 38.98302 | 116.15042 | 16022 ft | 382 kts | 35° |
| 2026-04-22 09:19 | 39.00469 | 116.16981 | 15921 ft | 378 kts | 25° |
| 2026-04-22 09:19 | 39.02829 | 116.18331 | 15823 ft | 373 kts | 14° |
| 2026-04-22 09:20 | 39.05336 | 116.19087 | 15721 ft | 368 kts | 4° |
| 2026-04-22 09:20 | 39.07865 | 116.19230 | 15623 ft | 363 kts | 354° |
| 2026-04-22 09:20 | 39.10386 | 116.18912 | 15531 ft | 361 kts | 351° |
| 2026-04-22 09:20 | 39.12896 | 116.18531 | 15439 ft | 360 kts | 350° |
| 2026-04-22 09:21 | 39.15358 | 116.18155 | 15352 ft | 360 kts | 350° |
| 2026-04-22 09:21 | 39.17875 | 116.17773 | 15243 ft | 359 kts | 351° |
| 2026-04-22 09:21 | 39.20348 | 116.17397 | 15148 ft | 358 kts | 351° |
| 2026-04-22 09:21 | 39.22807 | 116.17025 | 15059 ft | 357 kts | 351° |
| 2026-04-22 09:22 | 39.25268 | 116.16652 | 14965 ft | 357 kts | 351° |
| 2026-04-22 09:22 | 39.27733 | 116.16278 | 14871 ft | 357 kts | 351° |
| 2026-04-22 09:22 | 39.30216 | 116.15902 | 14777 ft | 357 kts | 351° |
| 2026-04-22 09:22 | 39.32677 | 116.15529 | 14680 ft | 356 kts | 351° |
| 2026-04-22 09:23 | 39.35117 | 116.15158 | 14627 ft | 355 kts | 351° |
| 2026-04-22 09:23 | 39.37595 | 116.14782 | 14634 ft | 357 kts | 351° |
| 2026-04-22 09:23 | 39.40048 | 116.14409 | 14636 ft | 357 kts | 351° |
| 2026-04-22 09:23 | 39.42527 | 116.14033 | 14634 ft | 355 kts | 351° |
| 2026-04-22 09:24 | 39.44948 | 116.13664 | 14633 ft | 353 kts | 351° |
| 2026-04-22 09:24 | 39.47404 | 116.13290 | 14627 ft | 355 kts | 351° |
| 2026-04-22 09:24 | 39.49842 | 116.12918 | 14627 ft | 354 kts | 351° |
| 2026-04-22 09:24 | 39.52295 | 116.12544 | 14640 ft | 356 kts | 351° |
| 2026-04-22 09:25 | 39.54769 | 116.12167 | 14640 ft | 354 kts | 351° |
| 2026-04-22 09:25 | 39.57217 | 116.11792 | 14630 ft | 355 kts | 351° |
| 2026-04-22 09:25 | 39.59665 | 116.11417 | 14631 ft | 355 kts | 351° |
| 2026-04-22 09:25 | 39.62100 | 116.11044 | 14628 ft | 354 kts | 351° |
| 2026-04-22 09:26 | 39.64577 | 116.10664 | 14625 ft | 355 kts | 351° |
| 2026-04-22 09:26 | 39.67001 | 116.10292 | 14629 ft | 354 kts | 351° |
| 2026-04-22 09:26 | 39.69456 | 116.09915 | 14622 ft | 353 kts | 351° |
| 2026-04-22 09:26 | 39.71878 | 116.09543 | 14620 ft | 352 kts | 351° |
| 2026-04-22 09:27 | 39.74328 | 116.09166 | 14620 ft | 353 kts | 351° |
| 2026-04-22 09:27 | 39.76782 | 116.08788 | 14612 ft | 354 kts | 351° |
| 2026-04-22 09:27 | 39.79225 | 116.08412 | 14615 ft | 353 kts | 351° |
| 2026-04-22 09:27 | 39.81639 | 116.08041 | 14614 ft | 352 kts | 351° |
| 2026-04-22 09:28 | 39.84089 | 116.07662 | 14616 ft | 354 kts | 351° |
| 2026-04-22 09:28 | 39.86542 | 116.07283 | 14617 ft | 352 kts | 351° |
| 2026-04-22 09:28 | 39.88954 | 116.06911 | 14621 ft | 353 kts | 351° |
| 2026-04-22 09:28 | 39.91412 | 116.06530 | 14610 ft | 352 kts | 351° |
| 2026-04-22 09:29 | 39.93823 | 116.06157 | 14609 ft | 352 kts | 351° |
| 2026-04-22 09:29 | 39.96281 | 116.05776 | 14607 ft | 353 kts | 351° |
| 2026-04-22 09:29 | 39.98697 | 116.05402 | 14600 ft | 351 kts | 351° |
| 2026-04-22 09:29 | 40.01111 | 116.05028 | 14588 ft | 352 kts | 351° |
| 2026-04-22 09:30 | 40.03560 | 116.04647 | 14332 ft | 354 kts | 351° |
| 2026-04-22 09:30 | 40.05991 | 116.04269 | 13894 ft | 352 kts | 351° |
| 2026-04-22 09:30 | 40.08419 | 116.03892 | 13414 ft | 349 kts | 351° |
| 2026-04-22 09:30 | 40.10823 | 116.03517 | 12933 ft | 346 kts | 351° |
| 2026-04-22 09:31 | 40.13200 | 116.03146 | 12491 ft | 347 kts | 351° |
| 2026-04-22 09:31 | 40.15588 | 116.02774 | 12028 ft | 346 kts | 351° |
| 2026-04-22 09:31 | 40.17965 | 116.02403 | 11543 ft | 345 kts | 351° |
| 2026-04-22 09:31 | 40.20379 | 116.02235 | 11057 ft | 345 kts | 3° |
| 2026-04-22 09:32 | 40.22705 | 116.02915 | 10683 ft | 344 kts | 19° |
| 2026-04-22 09:32 | 40.24823 | 116.04268 | 10629 ft | 330 kts | 25° |
| 2026-04-22 09:32 | 40.26779 | 116.05661 | 10531 ft | 316 kts | 26° |
| 2026-04-22 09:32 | 40.28646 | 116.07021 | 10422 ft | 301 kts | 26° |
| 2026-04-22 09:33 | 40.30439 | 116.08337 | 10301 ft | 288 kts | 27° |
| 2026-04-22 09:33 | 40.32161 | 116.09605 | 10195 ft | 277 kts | 27° |
| 2026-04-22 09:33 | 40.33789 | 116.10806 | 10076 ft | 267 kts | 27° |
| 2026-04-22 09:33 | 40.35378 | 116.11979 | 9901 ft | 260 kts | 27° |
| 2026-04-22 09:34 | 40.36997 | 116.13171 | 9534 ft | 273 kts | 27° |
| 2026-04-22 09:34 | 40.38636 | 116.14457 | 9152 ft | 276 kts | 37° |
| 2026-04-22 09:34 | 40.39842 | 116.16406 | 8785 ft | 277 kts | 65° |
| 2026-04-22 09:35 | 40.40386 | 116.21355 | 8454 ft | 280 kts | 88° |
| 2026-04-22 09:35 | 40.40418 | 116.23895 | 8272 ft | 280 kts | 89° |
| 2026-04-22 09:35 | 40.40439 | 116.26433 | 8081 ft | 277 kts | 89° |
| 2026-04-22 09:35 | 40.40460 | 116.28945 | 7899 ft | 276 kts | 89° |
| 2026-04-22 09:36 | 40.40482 | 116.31471 | 7714 ft | 276 kts | 89° |
| 2026-04-22 09:36 | 40.40503 | 116.33945 | 7517 ft | 272 kts | 89° |
| 2026-04-22 09:36 | 40.40523 | 116.36391 | 7340 ft | 265 kts | 89° |
| 2026-04-22 09:36 | 40.40543 | 116.38776 | 7163 ft | 258 kts | 90° |
| 2026-04-22 09:37 | 40.40562 | 116.41108 | 6988 ft | 251 kts | 90° |
| 2026-04-22 09:37 | 40.40580 | 116.43362 | 6820 ft | 244 kts | 90° |
| 2026-04-22 09:37 | 40.40596 | 116.45532 | 6663 ft | 237 kts | 90° |
| 2026-04-22 09:37 | 40.40612 | 116.47657 | 6588 ft | 231 kts | 91° |
| 2026-04-22 09:38 | 40.40627 | 116.49799 | 6577 ft | 234 kts | 90° |
| 2026-04-22 09:38 | 40.40642 | 116.51938 | 6415 ft | 236 kts | 91° |
| 2026-04-22 09:38 | 40.40429 | 116.54035 | 6113 ft | 230 kts | 116° |
| 2026-04-22 09:38 | 40.39557 | 116.55718 | 5836 ft | 222 kts | 140° |
| 2026-04-22 09:39 | 40.38211 | 116.56574 | 5529 ft | 216 kts | 168° |
| 2026-04-22 09:39 | 40.36757 | 116.56881 | 5417 ft | 205 kts | 172° |
| 2026-04-22 09:39 | 40.35348 | 116.57125 | 5358 ft | 203 kts | 172° |
| 2026-04-22 09:39 | 40.33942 | 116.57354 | 5158 ft | 207 kts | 173° |
| 2026-04-22 09:40 | 40.32530 | 116.57577 | 4874 ft | 205 kts | 173° |
| 2026-04-22 09:40 | 40.31119 | 116.57794 | 4580 ft | 200 kts | 173° |
| 2026-04-22 09:40 | 40.29762 | 116.58003 | 4341 ft | 194 kts | 173° |
| 2026-04-22 09:40 | 40.28431 | 116.58212 | 4069 ft | 190 kts | 173° |
| 2026-04-22 09:41 | 40.27130 | 116.58416 | 3809 ft | 186 kts | 172° |
| 2026-04-22 09:41 | 40.25873 | 116.58614 | 3555 ft | 181 kts | 172° |
| 2026-04-22 09:41 | 40.24636 | 116.58810 | 3303 ft | 177 kts | 172° |
| 2026-04-22 09:41 | 40.23422 | 116.59003 | 3063 ft | 173 kts | 172° |
| 2026-04-22 09:42 | 40.22237 | 116.59190 | 2826 ft | 169 kts | 172° |
| 2026-04-22 09:42 | 40.21098 | 116.59370 | 2592 ft | 161 kts | 172° |
| 2026-04-22 09:42 | 40.19996 | 116.59544 | 2385 ft | 155 kts | 172° |
| 2026-04-22 09:42 | 40.18957 | 116.59708 | 2168 ft | 147 kts | 172° |
| 2026-04-22 09:43 | 40.17944 | 116.59868 | 1959 ft | 145 kts | 172° |
| 2026-04-22 09:43 | 40.16945 | 116.60026 | 1749 ft | 144 kts | 172° |
| 2026-04-22 09:43 | 40.15952 | 116.60181 | 1543 ft | 144 kts | 172° |
| 2026-04-22 09:43 | 40.14951 | 116.60342 | 1344 ft | 143 kts | 172° |
| 2026-04-22 09:44 | 40.13965 | 116.60498 | 1129 ft | 144 kts | 172° |
| 2026-04-22 09:44 | 40.12959 | 116.60656 | 939 ft | 145 kts | 172° |
| 2026-04-22 09:44 | 40.11953 | 116.60809 | 712 ft | 144 kts | 171° |
| 2026-04-22 09:44 | 40.10960 | 116.60977 | 507 ft | 142 kts | 173° |
| 2026-04-22 09:45 | 40.09969 | 116.61122 | 304 ft | 144 kts | 172° |
| 2026-04-22 09:45 | 40.08984 | 116.61267 | 142 ft | 141 kts | 171° |
| 2026-04-22 09:45 | 40.08126 | 116.61407 | 130 ft | 102 kts | 171° |
| 2026-04-22 09:45 | 40.07571 | 116.61499 | 130 ft | 57 kts | 172° |
| 2026-04-22 09:46 | 40.07265 | 116.61549 | 130 ft | 38 kts | 173° |
| 2026-04-22 09:46 | 40.07034 | 116.61580 | 130 ft | 25 kts | 182° |
| 2026-04-22 09:46 | 40.06891 | 116.61544 | 130 ft | 16 kts | 195° |
| 2026-04-22 09:46 | 40.06790 | 116.61498 | 130 ft | 13 kts | 202° |
| 2026-04-22 09:47 | 40.06708 | 116.61453 | 130 ft | 12 kts | 202° |
| 2026-04-22 09:47 | 40.06634 | 116.61415 | 130 ft | 10 kts | 195° |
| 2026-04-22 09:47 | 40.06559 | 116.61419 | 130 ft | 12 kts | 172° |
| 2026-04-22 09:47 | 40.06465 | 116.61433 | 130 ft | 13 kts | 174° |
| 2026-04-22 09:48 | 40.06394 | 116.61437 | 130 ft | 7 kts | 198° |
| 2026-04-22 09:48 | 40.06368 | 116.61378 | 130 ft | 8 kts | 262° |
| 2026-04-22 09:48 | 40.06359 | 116.61299 | 130 ft | 8 kts | 262° |